createdAt,value
2023-04-30T05:15:42.590Z,33.38
2023-04-30T07:38:46.726Z,35.57
2023-04-30T12:25:49.826Z,35.32
2023-04-30T13:22:08.052Z,35.13
2023-04-30T17:02:50.926Z,33.74
2023-04-30T17:03:29.164Z,33.50
2023-04-30T17:04:00.792Z,33.66
2023-04-30T17:04:32.425Z,33.52
2023-04-30T17:05:10.909Z,33.78
2023-04-30T17:05:42.453Z,33.65
2023-04-30T17:06:14.173Z,33.48
2023-04-30T17:06:45.941Z,33.91
2023-04-30T17:07:17.558Z,33.85
2023-04-30T17:07:49.155Z,33.84
2023-04-30T17:08:20.974Z,33.84
2023-04-30T17:08:52.500Z,33.83
2023-04-30T17:09:23.980Z,34.05
2023-04-30T17:10:01.878Z,33.73
2023-04-30T17:10:33.600Z,33.66
2023-04-30T17:11:05.196Z,33.69
2023-04-30T17:11:36.746Z,33.78
2023-04-30T17:12:08.311Z,33.85
2023-04-30T17:12:39.984Z,33.82
2023-04-30T17:13:12.128Z,33.77
2023-04-30T17:13:43.852Z,33.75
2023-04-30T17:14:15.399Z,33.79
2023-04-30T17:14:54.037Z,33.63
2023-04-30T17:15:25.929Z,33.69
2023-04-30T17:15:59.394Z,33.55
2023-04-30T17:16:33.085Z,33.62
2023-04-30T17:17:04.738Z,33.43
2023-04-30T17:17:36.303Z,33.63
2023-04-30T17:18:07.967Z,33.44
2023-04-30T17:18:39.572Z,33.48
2023-04-30T17:19:11.145Z,33.39
2023-04-30T17:19:48.854Z,33.63
2023-04-30T17:20:20.406Z,33.52
2023-04-30T17:20:51.977Z,33.75
2023-04-30T17:21:23.528Z,33.74
2023-04-30T17:21:55.095Z,33.46
2023-04-30T17:22:26.658Z,33.61
2023-04-30T17:22:58.205Z,33.44
2023-04-30T17:23:29.773Z,33.26
2023-04-30T17:24:01.953Z,33.20
2023-04-30T17:24:33.546Z,33.25
2023-04-30T17:25:11.866Z,33.35
2023-04-30T17:25:43.458Z,33.24
2023-04-30T17:26:14.997Z,33.57
2023-04-30T17:26:46.562Z,33.43
2023-04-30T17:27:18.077Z,33.49
2023-04-30T17:27:49.695Z,33.44
2023-04-30T17:28:21.279Z,33.75
2023-04-30T17:28:52.885Z,33.29
2023-04-30T17:29:24.478Z,33.18
2023-04-30T17:30:02.867Z,33.65
2023-04-30T17:30:34.339Z,33.03
2023-04-30T17:31:05.859Z,33.41
2023-04-30T17:31:37.444Z,33.14
2023-04-30T17:32:09.053Z,33.09
2023-04-30T17:32:40.630Z,33.41
2023-04-30T17:33:12.248Z,33.24
2023-04-30T17:33:45.416Z,33.45
2023-04-30T17:34:17.629Z,33.40
2023-04-30T17:34:55.867Z,33.35
2023-04-30T17:35:27.456Z,33.22
2023-04-30T17:35:59.055Z,33.12
2023-04-30T17:36:30.606Z,33.03
2023-04-30T17:37:02.222Z,33.21
2023-04-30T17:37:33.778Z,33.29
2023-04-30T17:38:05.309Z,33.26
2023-04-30T17:38:36.858Z,33.11
2023-04-30T17:39:08.391Z,33.21
2023-04-30T17:39:46.885Z,33.15
2023-04-30T17:40:18.404Z,33.64
2023-04-30T17:40:49.984Z,33.13
2023-04-30T17:41:21.483Z,32.97
2023-04-30T17:41:52.989Z,33.25
2023-04-30T17:42:24.497Z,33.33
2023-04-30T17:42:55.980Z,33.50
2023-04-30T17:43:27.390Z,33.34
2023-04-30T17:43:58.887Z,33.29
2023-04-30T17:44:36.876Z,33.11
2023-04-30T17:45:08.531Z,33.12
2023-04-30T17:45:40.056Z,33.28
2023-04-30T17:46:11.830Z,33.39
2023-04-30T17:46:43.601Z,33.44
2023-04-30T17:47:16.261Z,33.29
2023-04-30T17:47:48.014Z,33.15
2023-04-30T17:48:19.701Z,33.24
2023-04-30T17:48:51.236Z,33.36
2023-04-30T17:49:22.841Z,33.23
2023-04-30T17:50:00.838Z,33.17
2023-04-30T17:50:32.343Z,33.26
2023-04-30T17:51:03.876Z,33.18
2023-04-30T17:51:35.375Z,33.15
2023-04-30T17:52:06.997Z,33.20
2023-04-30T17:52:38.777Z,33.23
2023-04-30T17:53:10.415Z,33.26
2023-04-30T17:53:41.993Z,33.21
2023-04-30T17:54:13.496Z,33.46
2023-04-30T17:54:51.896Z,33.35
2023-04-30T17:55:23.458Z,32.96
2023-04-30T17:55:55.038Z,32.95
2023-04-30T17:56:27.160Z,33.13
2023-04-30T17:56:58.777Z,33.08
2023-04-30T17:57:30.358Z,33.43
2023-04-30T17:58:01.971Z,33.59
2023-04-30T17:58:33.467Z,33.54
2023-04-30T17:59:05.044Z,33.36
2023-04-30T17:59:44.971Z,33.48
2023-04-30T18:00:16.521Z,33.11
2023-04-30T18:00:48.077Z,33.07
2023-04-30T18:01:19.639Z,33.28
2023-04-30T18:01:51.332Z,33.00
2023-04-30T18:02:23.350Z,33.00
2023-04-30T18:02:55.228Z,32.73
2023-04-30T18:03:27.064Z,32.85
2023-04-30T18:03:59.390Z,32.87
2023-04-30T18:04:31.139Z,33.23
2023-04-30T18:05:02.769Z,32.94
2023-04-30T18:05:35.545Z,32.82
2023-04-30T18:06:07.442Z,32.76
2023-04-30T18:06:39.186Z,32.96
2023-04-30T18:07:10.875Z,32.99
2023-04-30T18:07:42.453Z,32.83
2023-04-30T18:08:14.028Z,32.88
2023-04-30T18:08:45.539Z,33.18
2023-04-30T18:09:17.108Z,33.02
2023-04-30T18:09:48.650Z,32.79
2023-04-30T18:10:20.206Z,33.11
2023-04-30T18:10:51.845Z,32.99
2023-04-30T18:11:23.324Z,33.12
2023-04-30T18:11:54.964Z,33.12
2023-04-30T18:12:26.495Z,33.18
2023-04-30T18:12:58.051Z,33.42
2023-04-30T18:13:29.833Z,33.54
2023-04-30T18:14:01.403Z,33.41
2023-04-30T18:14:32.930Z,33.44
2023-04-30T18:15:05.396Z,33.19
2023-04-30T18:15:36.904Z,33.24
2023-04-30T18:16:08.538Z,33.31
2023-04-30T18:16:40.246Z,33.44
2023-04-30T18:17:11.906Z,33.44
2023-04-30T18:17:43.531Z,33.81
2023-04-30T18:18:15.179Z,33.61
2023-04-30T18:18:46.788Z,33.77
2023-04-30T18:19:18.351Z,33.72
2023-04-30T18:19:49.976Z,33.61
2023-04-30T18:20:21.544Z,33.82
2023-04-30T18:20:53.194Z,33.84
2023-04-30T18:21:24.843Z,33.60
2023-04-30T18:21:56.437Z,33.54
2023-04-30T18:22:28.047Z,33.58
2023-04-30T18:22:59.604Z,33.48
2023-04-30T18:23:31.167Z,33.38
2023-04-30T18:24:02.809Z,33.28
2023-04-30T18:24:34.381Z,33.36
2023-04-30T18:25:06.334Z,33.30
2023-04-30T18:25:37.986Z,33.12
2023-04-30T18:26:09.589Z,33.04
2023-04-30T18:26:41.161Z,33.30
2023-04-30T18:27:12.818Z,33.23
2023-04-30T18:27:44.468Z,33.40
2023-04-30T18:28:16.021Z,33.54
2023-04-30T18:28:47.725Z,33.55
2023-04-30T18:29:19.292Z,33.75
2023-04-30T18:29:50.985Z,33.60
2023-04-30T18:30:22.555Z,33.43
2023-04-30T18:30:54.166Z,33.30
2023-04-30T18:31:25.750Z,33.42
2023-04-30T18:31:57.424Z,33.34
2023-04-30T18:32:29.113Z,33.21
2023-04-30T18:33:00.778Z,33.44
2023-04-30T18:33:32.380Z,33.36
2023-04-30T18:34:04.015Z,33.09
2023-04-30T18:34:35.602Z,33.22
2023-04-30T18:35:07.334Z,33.20
2023-04-30T18:35:38.979Z,33.25
2023-04-30T18:36:10.671Z,33.40
2023-04-30T18:36:42.174Z,33.53
2023-04-30T18:37:13.918Z,33.76
2023-04-30T18:37:45.438Z,33.63
2023-04-30T18:38:17.228Z,33.50
2023-04-30T18:38:48.811Z,33.91
2023-04-30T18:39:20.366Z,33.73
2023-04-30T18:39:52.174Z,33.73
2023-04-30T18:40:24.047Z,33.84
2023-04-30T18:40:55.587Z,33.98
2023-04-30T18:41:27.301Z,34.19
2023-04-30T18:41:58.816Z,34.08
2023-04-30T18:42:30.360Z,34.09
2023-04-30T18:43:01.957Z,34.14
2023-04-30T18:43:33.426Z,34.47
2023-04-30T18:44:05.029Z,34.46
2023-04-30T18:44:36.573Z,34.08
2023-04-30T18:45:08.367Z,34.24
2023-04-30T18:45:39.970Z,34.43
2023-04-30T18:46:11.593Z,34.36
2023-04-30T18:46:43.239Z,34.41
2023-04-30T18:47:14.929Z,34.51
2023-04-30T18:47:46.472Z,34.51
2023-04-30T18:48:18.079Z,34.24
2023-04-30T18:48:49.645Z,34.31
2023-04-30T18:49:21.355Z,34.07
2023-04-30T18:49:53.140Z,33.87
2023-04-30T18:50:25.168Z,33.91
2023-04-30T18:50:56.674Z,33.81
2023-04-30T18:51:28.193Z,33.79
2023-04-30T18:51:59.731Z,33.79
2023-04-30T18:52:31.370Z,33.65
2023-04-30T18:53:02.991Z,33.78
2023-04-30T18:53:35.069Z,33.56
2023-04-30T18:54:06.638Z,33.43
2023-04-30T18:54:38.202Z,33.57
2023-04-30T18:55:09.877Z,33.71
2023-04-30T18:55:41.475Z,33.48
2023-04-30T18:56:13.246Z,33.48
2023-04-30T18:56:44.759Z,33.62
2023-04-30T18:57:16.456Z,33.75
2023-04-30T18:57:48.071Z,33.50
2023-04-30T18:58:19.551Z,33.53
2023-04-30T18:58:51.074Z,33.55
2023-04-30T18:59:22.534Z,33.62
2023-04-30T18:59:54.351Z,33.60
2023-04-30T19:00:26.121Z,33.31
2023-04-30T19:00:57.747Z,33.46
2023-04-30T19:01:29.401Z,33.63
2023-04-30T19:02:00.908Z,33.45
2023-04-30T19:02:32.748Z,33.62
2023-04-30T19:03:04.452Z,33.35
2023-04-30T19:03:36.206Z,33.44
2023-04-30T19:04:07.804Z,33.64
2023-04-30T19:04:39.274Z,33.52
2023-04-30T19:05:10.794Z,33.41
2023-04-30T19:05:42.322Z,33.53
2023-04-30T19:06:13.878Z,33.43
2023-04-30T19:06:45.525Z,33.29
2023-04-30T19:07:17.058Z,33.48
2023-04-30T19:07:48.574Z,33.46
2023-04-30T19:08:20.195Z,33.45
2023-04-30T19:08:51.752Z,33.37
2023-04-30T19:09:23.237Z,33.46
2023-04-30T19:09:55.275Z,33.32
2023-04-30T19:10:26.938Z,33.30
2023-04-30T19:10:58.414Z,33.50
2023-04-30T19:11:29.927Z,33.50
2023-04-30T19:12:01.456Z,33.56
2023-04-30T19:12:33.168Z,33.46
2023-04-30T19:13:04.774Z,33.43
2023-04-30T19:13:36.323Z,33.50
2023-04-30T19:14:07.919Z,33.38
2023-04-30T19:14:41.069Z,33.48
2023-04-30T19:15:12.609Z,33.41
2023-04-30T19:15:44.196Z,33.46
2023-04-30T19:16:15.944Z,33.49
2023-04-30T19:16:47.581Z,33.31
2023-04-30T19:17:21.512Z,33.41
2023-04-30T19:17:53.624Z,33.38
2023-04-30T19:18:25.180Z,33.66
2023-04-30T19:18:57.064Z,33.50
2023-04-30T19:19:28.545Z,33.27
2023-04-30T19:20:00.203Z,33.11
2023-04-30T19:20:31.749Z,33.12
2023-04-30T19:21:03.443Z,33.12
2023-04-30T19:21:35.029Z,33.45
2023-04-30T19:22:06.628Z,33.39
2023-04-30T19:22:38.248Z,33.41
2023-04-30T19:23:09.843Z,33.40
2023-04-30T19:23:41.420Z,33.32
2023-04-30T19:24:12.988Z,33.43
2023-04-30T19:24:44.648Z,33.41
2023-04-30T19:25:25.588Z,33.54
2023-04-30T19:25:57.422Z,33.26
2023-04-30T19:26:29.255Z,33.45
2023-04-30T19:27:00.802Z,33.52
2023-04-30T19:27:32.308Z,33.62
2023-04-30T19:28:03.933Z,33.33
2023-04-30T19:28:35.506Z,33.55
2023-04-30T19:29:06.991Z,33.33
2023-04-30T19:29:38.550Z,33.33
2023-04-30T19:30:10.392Z,33.39
2023-04-30T19:30:41.995Z,33.43
2023-04-30T19:31:13.607Z,33.30
2023-04-30T19:31:45.352Z,33.21
2023-04-30T19:32:17.291Z,33.34
2023-04-30T19:32:49.040Z,33.18
2023-04-30T19:33:21.038Z,33.36
2023-04-30T19:33:52.625Z,33.11
2023-04-30T19:34:24.164Z,33.22
2023-04-30T19:34:55.750Z,33.22
2023-04-30T19:35:27.302Z,33.35
2023-04-30T19:35:58.837Z,33.30
2023-04-30T19:36:30.387Z,33.18
2023-04-30T19:37:01.934Z,33.32
2023-04-30T19:37:33.518Z,33.17
2023-04-30T19:38:05.070Z,33.13
2023-04-30T19:38:36.580Z,33.40
2023-04-30T19:39:08.174Z,33.17
2023-04-30T19:39:39.706Z,33.08
2023-04-30T19:40:11.343Z,33.00
2023-04-30T19:40:46.241Z,33.09
2023-04-30T19:41:17.829Z,33.21
2023-04-30T19:41:49.372Z,33.32
2023-04-30T19:42:20.923Z,33.09
2023-04-30T19:42:54.215Z,33.06
2023-04-30T19:43:26.376Z,33.23
2023-04-30T19:43:57.884Z,33.04
2023-04-30T19:44:29.522Z,33.07
2023-04-30T19:45:01.177Z,33.12
2023-04-30T19:45:32.709Z,33.27
2023-04-30T19:46:04.361Z,33.35
2023-04-30T19:46:36.007Z,33.08
2023-04-30T19:47:07.617Z,33.02
2023-04-30T19:47:39.153Z,32.95
2023-04-30T19:48:10.826Z,33.01
2023-04-30T19:48:43.926Z,33.02
2023-04-30T19:49:15.697Z,32.90
2023-04-30T19:49:47.192Z,33.13
2023-04-30T19:50:18.805Z,32.97
2023-04-30T19:50:50.533Z,33.06
2023-04-30T19:51:22.130Z,33.15
2023-04-30T19:51:53.877Z,32.83
2023-04-30T19:52:25.407Z,32.85
2023-04-30T19:52:56.970Z,33.07
2023-04-30T19:53:28.471Z,32.91
2023-04-30T19:53:59.943Z,33.09
2023-04-30T19:54:31.451Z,32.94
2023-04-30T19:55:02.994Z,32.84
2023-04-30T19:55:34.591Z,32.79
2023-04-30T19:56:06.225Z,32.88
2023-04-30T19:56:37.837Z,32.78
2023-04-30T19:57:09.335Z,32.98
2023-04-30T19:57:40.920Z,32.82
2023-04-30T19:58:12.476Z,33.02
2023-04-30T19:58:44.120Z,32.80
2023-04-30T19:59:15.571Z,32.89
2023-04-30T19:59:47.140Z,33.07
2023-04-30T20:00:18.765Z,32.90
2023-04-30T20:00:50.323Z,32.87
2023-04-30T20:01:21.936Z,33.03
2023-04-30T20:01:53.558Z,32.89
2023-04-30T20:02:25.248Z,32.69
2023-04-30T20:02:56.892Z,32.92
2023-04-30T20:03:28.498Z,32.78
2023-04-30T20:04:00.397Z,32.66
2023-04-30T20:04:32.148Z,32.66
2023-04-30T20:05:05.672Z,32.77
2023-04-30T20:05:39.038Z,32.88
2023-04-30T20:06:10.937Z,32.94
2023-04-30T20:06:42.611Z,33.00
2023-04-30T20:07:14.209Z,33.00
2023-04-30T20:07:45.751Z,32.89
2023-04-30T20:08:17.281Z,32.97
2023-04-30T20:08:48.816Z,32.73
2023-04-30T20:09:20.547Z,32.80
2023-04-30T20:09:52.037Z,32.67
2023-04-30T20:10:23.728Z,32.83
2023-04-30T20:10:55.262Z,32.73
2023-04-30T20:11:27.012Z,32.66
2023-04-30T20:11:58.619Z,32.78
2023-04-30T20:12:30.132Z,32.78
2023-04-30T20:13:01.785Z,32.77
2023-04-30T20:13:33.327Z,32.74
2023-04-30T20:14:04.840Z,32.75
2023-04-30T20:14:36.348Z,32.78
2023-04-30T20:15:08.046Z,32.83
2023-04-30T20:15:39.544Z,32.74
2023-04-30T20:16:11.181Z,32.74
2023-04-30T20:16:42.809Z,32.82
2023-04-30T20:17:14.510Z,32.79
2023-04-30T20:17:46.131Z,32.80
2023-04-30T20:18:17.708Z,32.69
2023-04-30T20:18:49.272Z,32.68
2023-04-30T20:19:21.188Z,32.89
2023-04-30T20:19:52.653Z,32.71
2023-04-30T20:20:24.250Z,32.81
2023-04-30T20:20:58.614Z,32.76
2023-04-30T20:21:30.615Z,32.76
2023-04-30T20:22:02.237Z,32.88
2023-04-30T20:22:33.737Z,32.83
2023-04-30T20:23:14.566Z,32.85
2023-04-30T20:23:46.047Z,32.71
2023-04-30T20:24:17.786Z,32.69
2023-04-30T20:24:49.392Z,32.71
2023-04-30T20:25:21.551Z,32.92
2023-04-30T20:25:53.143Z,32.78
2023-04-30T20:26:24.754Z,32.68
2023-04-30T20:26:56.343Z,32.96
2023-04-30T20:27:27.981Z,32.71
2023-04-30T20:27:59.542Z,32.87
2023-04-30T20:28:31.212Z,32.85
2023-04-30T20:29:02.737Z,32.97
2023-04-30T20:29:34.238Z,32.86
2023-04-30T20:30:06.135Z,32.77
2023-04-30T20:30:37.659Z,32.86
2023-04-30T20:31:09.169Z,32.87
2023-04-30T20:31:40.717Z,32.73
2023-04-30T20:32:12.242Z,32.76
2023-04-30T20:32:43.924Z,32.78
2023-04-30T20:33:15.706Z,32.63
2023-04-30T20:33:47.853Z,32.86
2023-04-30T20:34:19.364Z,32.77
2023-04-30T20:34:50.904Z,32.93
2023-04-30T20:35:22.420Z,32.56
2023-04-30T20:35:53.961Z,32.72
2023-04-30T20:36:25.499Z,32.82
2023-04-30T20:36:57.103Z,32.68
2023-04-30T20:37:28.642Z,32.71
2023-04-30T20:38:00.257Z,32.93
2023-04-30T20:38:31.846Z,32.73
2023-04-30T20:39:03.443Z,32.81
2023-04-30T20:39:34.998Z,32.62
2023-04-30T20:40:06.917Z,32.92
2023-04-30T20:40:38.446Z,32.90
2023-04-30T20:41:09.985Z,32.75
2023-04-30T20:41:41.526Z,32.84
2023-04-30T20:42:13.336Z,32.72
2023-04-30T20:42:44.871Z,32.72
2023-04-30T20:43:16.543Z,32.85
2023-04-30T20:43:48.141Z,32.70
2023-04-30T20:44:19.780Z,32.76
2023-04-30T20:44:51.380Z,32.95
2023-04-30T20:45:23.080Z,32.79
2023-04-30T20:45:57.501Z,32.66
2023-04-30T20:46:29.097Z,32.80
2023-04-30T20:47:01.310Z,32.98
2023-04-30T20:47:33.051Z,32.76
2023-04-30T20:48:04.861Z,32.84
2023-04-30T20:48:36.571Z,32.76
2023-04-30T20:49:08.063Z,32.71
2023-04-30T20:49:42.712Z,32.74
2023-04-30T20:50:14.333Z,32.79
2023-04-30T20:50:45.816Z,32.86
2023-04-30T20:51:17.382Z,32.74
2023-04-30T20:51:48.968Z,32.86
2023-04-30T20:52:20.517Z,32.86
2023-04-30T20:52:52.029Z,32.72
2023-04-30T20:53:23.720Z,32.56
2023-04-30T20:53:55.302Z,32.77
2023-04-30T20:54:26.913Z,32.81
2023-04-30T20:54:58.461Z,32.92
2023-04-30T20:55:29.994Z,32.78
2023-04-30T20:56:01.593Z,32.82
2023-04-30T20:56:33.116Z,32.80
2023-04-30T20:57:04.987Z,32.79
2023-04-30T20:57:36.798Z,32.94
2023-04-30T20:58:08.445Z,32.81
2023-04-30T20:58:39.961Z,32.76
2023-04-30T20:59:11.632Z,32.86
2023-04-30T20:59:43.326Z,32.88
2023-04-30T21:00:15.035Z,32.92
2023-04-30T21:00:46.681Z,33.04
2023-04-30T21:01:18.356Z,32.99
2023-04-30T21:01:49.974Z,33.02
2023-04-30T21:02:21.569Z,32.80
2023-04-30T21:02:53.226Z,32.87
2023-04-30T21:03:24.998Z,32.81
2023-04-30T21:03:56.600Z,33.00
2023-04-30T21:04:28.130Z,32.97
2023-04-30T21:04:59.707Z,32.84
2023-04-30T21:05:31.261Z,33.02
2023-04-30T21:06:02.898Z,32.97
2023-04-30T21:06:34.451Z,32.85
2023-04-30T21:07:06.051Z,33.05
2023-04-30T21:07:37.646Z,32.97
2023-04-30T21:08:09.199Z,33.06
2023-04-30T21:08:40.702Z,33.10
2023-04-30T21:09:12.256Z,33.11
2023-04-30T21:09:43.868Z,32.97
2023-04-30T21:10:15.454Z,32.98
2023-04-30T21:10:46.982Z,33.16
2023-04-30T21:11:18.552Z,33.19
2023-04-30T21:11:50.113Z,33.13
2023-04-30T21:12:21.615Z,33.15
2023-04-30T21:12:53.150Z,33.11
2023-04-30T21:13:24.941Z,33.19
2023-04-30T21:13:56.499Z,33.24
2023-04-30T21:14:28.041Z,33.14
2023-04-30T21:14:59.659Z,33.24
2023-04-30T21:15:31.963Z,33.22
2023-04-30T21:16:03.489Z,33.18
2023-04-30T21:16:35.163Z,33.24
2023-04-30T21:17:06.824Z,33.35
2023-04-30T21:17:38.517Z,33.26
2023-04-30T21:18:10.190Z,33.09
2023-04-30T21:18:41.777Z,33.27
2023-04-30T21:19:13.333Z,33.13
2023-04-30T21:19:44.885Z,33.23
2023-04-30T21:20:16.573Z,33.26
2023-04-30T21:20:48.140Z,33.16
2023-04-30T21:21:19.656Z,33.23
2023-04-30T21:21:51.207Z,33.17
2023-04-30T21:22:22.746Z,33.09
2023-04-30T21:22:54.215Z,33.22
2023-04-30T21:23:25.858Z,33.15
2023-04-30T21:23:57.398Z,33.24
2023-04-30T21:24:31.522Z,33.24
2023-04-30T21:25:03.206Z,33.25
2023-04-30T21:25:36.170Z,33.26
2023-04-30T21:26:07.720Z,33.27
2023-04-30T21:26:39.210Z,33.12
2023-04-30T21:27:10.833Z,33.24
2023-04-30T21:27:42.321Z,33.22
2023-04-30T21:28:13.861Z,33.31
2023-04-30T21:28:45.462Z,33.24
2023-04-30T21:29:17.020Z,33.20
2023-04-30T21:29:48.600Z,33.17
2023-04-30T21:30:20.156Z,33.21
2023-04-30T21:30:51.844Z,33.23
2023-04-30T21:31:23.454Z,33.26
2023-04-30T21:31:54.985Z,33.16
2023-04-30T21:32:26.563Z,33.35
2023-04-30T21:32:58.804Z,33.26
2023-04-30T21:33:30.776Z,33.32
2023-04-30T21:34:02.457Z,33.15
2023-04-30T21:34:34.013Z,33.34
2023-04-30T21:35:05.690Z,33.13
2023-04-30T21:35:37.253Z,33.27
2023-04-30T21:36:08.844Z,33.15
2023-04-30T21:36:40.409Z,33.27
2023-04-30T21:37:11.933Z,33.23
2023-04-30T21:37:43.549Z,33.25
2023-04-30T21:38:15.083Z,33.30
2023-04-30T21:38:46.620Z,33.21
2023-04-30T21:39:18.254Z,33.24
2023-04-30T21:39:49.791Z,33.18
2023-04-30T21:40:21.408Z,33.25
2023-04-30T21:40:52.961Z,33.12
2023-04-30T21:41:24.557Z,33.08
2023-04-30T21:41:56.150Z,33.37
2023-04-30T21:42:27.666Z,33.25
2023-04-30T21:43:02.098Z,33.25
2023-04-30T21:43:33.663Z,33.24
2023-04-30T21:44:05.237Z,33.24
2023-04-30T21:44:36.863Z,33.36
2023-04-30T21:45:08.476Z,33.40
2023-04-30T21:45:41.480Z,33.38
2023-04-30T21:46:14.945Z,33.41
2023-04-30T21:46:46.774Z,33.29
2023-04-30T21:47:18.630Z,33.25
2023-04-30T21:47:50.352Z,33.44
2023-04-30T21:48:21.923Z,33.36
2023-04-30T21:48:53.477Z,33.60
2023-04-30T21:49:25.046Z,33.38
2023-04-30T21:49:56.798Z,33.35
2023-04-30T21:50:28.517Z,33.46
2023-04-30T21:51:00.184Z,33.50
2023-04-30T21:51:31.787Z,33.50
2023-04-30T21:52:03.412Z,33.40
2023-04-30T21:52:34.973Z,33.54
2023-04-30T21:53:06.526Z,33.47
2023-04-30T21:53:38.065Z,33.42
2023-04-30T21:54:09.597Z,33.31
2023-04-30T21:54:41.118Z,33.33
2023-04-30T21:55:12.747Z,33.58
2023-04-30T21:55:44.342Z,33.41
2023-04-30T21:56:15.989Z,33.52
2023-04-30T21:56:47.556Z,33.56
2023-04-30T21:57:19.109Z,33.32
2023-04-30T21:57:51.036Z,33.43
2023-04-30T21:58:22.646Z,33.43
2023-04-30T21:58:54.180Z,33.51
2023-04-30T21:59:25.713Z,33.31
2023-04-30T21:59:58.521Z,33.55
2023-04-30T22:00:30.218Z,33.50
2023-04-30T22:01:01.856Z,33.56
2023-04-30T22:01:33.391Z,33.46
2023-04-30T22:02:13.055Z,33.61
2023-04-30T22:02:54.036Z,33.45
2023-04-30T22:03:25.719Z,33.64
2023-04-30T22:03:57.391Z,33.53
2023-04-30T22:04:29.040Z,33.55
2023-04-30T22:05:00.626Z,33.58
2023-04-30T22:05:32.142Z,33.58
2023-04-30T22:06:03.888Z,33.59
2023-04-30T22:06:35.504Z,33.69
2023-04-30T22:07:07.110Z,33.45
2023-04-30T22:07:39.158Z,33.56
2023-04-30T22:08:10.721Z,33.52
2023-04-30T22:08:42.249Z,33.47
2023-04-30T22:09:13.872Z,33.59
2023-04-30T22:09:45.424Z,33.63
2023-04-30T22:10:17.228Z,33.73
2023-04-30T22:10:48.841Z,33.54
2023-04-30T22:11:20.457Z,33.65
2023-04-30T22:11:51.975Z,33.56
2023-04-30T22:12:23.466Z,33.71
2023-04-30T22:12:55.049Z,33.65
2023-04-30T22:13:27.021Z,33.66
2023-04-30T22:13:58.700Z,33.53
2023-04-30T22:14:33.417Z,33.63
2023-04-30T22:15:05.230Z,33.53
2023-04-30T22:15:47.053Z,33.61
2023-04-30T22:16:19.652Z,33.70
2023-04-30T22:16:51.418Z,33.59
2023-04-30T22:17:23.169Z,33.61
2023-04-30T22:17:54.792Z,33.54
2023-04-30T22:18:26.392Z,33.69
2023-04-30T22:18:59.137Z,33.66
2023-04-30T22:19:30.842Z,33.62
2023-04-30T22:20:02.571Z,33.53
2023-04-30T22:20:34.157Z,33.55
2023-04-30T22:21:05.710Z,33.55
2023-04-30T22:21:37.223Z,33.63
2023-04-30T22:22:08.751Z,33.59
2023-04-30T22:22:40.293Z,33.47
2023-04-30T22:23:11.979Z,33.48
2023-04-30T22:23:43.499Z,33.48
2023-04-30T22:24:15.009Z,33.69
2023-04-30T22:24:46.552Z,33.48
2023-04-30T22:25:18.754Z,33.70
2023-04-30T22:25:50.349Z,33.51
2023-04-30T22:26:23.673Z,33.61
2023-04-30T22:26:56.335Z,33.64
2023-04-30T22:27:27.923Z,33.58
2023-04-30T22:27:59.486Z,33.60
2023-04-30T22:28:31.113Z,33.69
2023-04-30T22:29:02.624Z,33.67
2023-04-30T22:29:34.245Z,33.89
2023-04-30T22:30:06.350Z,33.62
2023-04-30T22:30:37.902Z,33.48
2023-04-30T22:31:09.548Z,33.54
2023-04-30T22:31:41.252Z,33.48
2023-04-30T22:32:12.922Z,33.63
2023-04-30T22:32:44.897Z,33.55
2023-04-30T22:33:16.620Z,33.54
2023-04-30T22:33:48.241Z,33.57
2023-04-30T22:34:19.905Z,33.72
2023-04-30T22:34:51.482Z,33.65
2023-04-30T22:35:23.170Z,33.52
2023-04-30T22:35:54.816Z,33.84
2023-04-30T22:36:26.417Z,33.65
2023-04-30T22:36:57.994Z,33.50
2023-04-30T22:37:29.712Z,33.75
2023-04-30T22:38:01.324Z,33.67
2023-04-30T22:38:32.879Z,33.66
2023-04-30T22:39:04.521Z,33.63
2023-04-30T22:39:36.111Z,33.62
2023-04-30T22:40:08.034Z,33.54
2023-04-30T22:40:39.657Z,33.66
2023-04-30T22:41:11.186Z,33.65
2023-04-30T22:41:42.717Z,33.53
2023-04-30T22:42:14.253Z,33.70
2023-04-30T22:42:45.981Z,33.70
2023-04-30T22:43:17.524Z,33.60
2023-04-30T22:43:49.051Z,33.54
2023-04-30T22:44:20.627Z,33.60
2023-04-30T22:44:52.184Z,33.65
2023-04-30T22:45:23.821Z,33.63
2023-04-30T22:45:55.327Z,33.67
2023-04-30T22:46:26.890Z,33.61
2023-04-30T22:46:58.495Z,33.67
2023-04-30T22:47:30.107Z,33.66
2023-04-30T22:48:02.197Z,33.74
2023-04-30T22:48:33.856Z,33.69
2023-04-30T22:49:05.405Z,33.70
2023-04-30T22:49:37.034Z,33.59
2023-04-30T22:50:08.797Z,33.70
2023-04-30T22:50:40.422Z,33.58
2023-04-30T22:51:12.005Z,33.68
2023-04-30T22:51:43.514Z,33.51
2023-04-30T22:52:15.060Z,33.53
2023-04-30T22:52:46.618Z,33.67
2023-04-30T22:53:18.214Z,33.53
2023-04-30T22:53:49.820Z,33.55
2023-04-30T22:54:21.386Z,33.56
2023-04-30T22:54:53.010Z,33.59
2023-04-30T22:55:24.563Z,33.63
2023-04-30T22:55:56.179Z,33.66
2023-04-30T22:56:27.698Z,33.67
2023-04-30T22:56:59.296Z,33.60
2023-04-30T22:57:31.482Z,33.59
2023-04-30T22:58:03.165Z,33.64
2023-04-30T22:58:34.737Z,33.55
2023-04-30T22:59:06.315Z,33.54
2023-04-30T22:59:37.848Z,33.37
2023-04-30T23:00:09.694Z,33.57
2023-04-30T23:00:41.366Z,33.56
2023-04-30T23:01:13.039Z,33.62
2023-04-30T23:01:44.637Z,33.67
2023-04-30T23:02:16.239Z,33.60
2023-04-30T23:02:47.945Z,33.57
2023-04-30T23:03:19.603Z,33.66
2023-04-30T23:03:51.203Z,33.73
2023-04-30T23:04:22.919Z,33.73
2023-04-30T23:04:54.486Z,33.73
2023-04-30T23:05:26.059Z,33.59
2023-04-30T23:05:58.960Z,33.59
2023-04-30T23:06:30.808Z,33.59
2023-04-30T23:07:02.352Z,33.72
2023-04-30T23:07:33.910Z,33.77
2023-04-30T23:08:05.575Z,33.72
2023-04-30T23:08:37.121Z,33.65
2023-04-30T23:09:08.799Z,33.60
2023-04-30T23:09:40.427Z,33.68
2023-04-30T23:10:12.000Z,33.72
2023-04-30T23:10:44.030Z,33.72
2023-04-30T23:11:15.588Z,33.77
2023-04-30T23:11:47.095Z,33.78
2023-04-30T23:12:18.667Z,33.76
2023-04-30T23:12:50.168Z,33.70
2023-04-30T23:13:21.729Z,33.64
2023-04-30T23:13:53.249Z,33.81
2023-04-30T23:14:24.774Z,33.79
2023-04-30T23:14:56.283Z,33.79
2023-04-30T23:15:27.821Z,33.59
2023-04-30T23:15:59.579Z,33.72
2023-04-30T23:16:31.274Z,33.68
2023-04-30T23:17:03.009Z,33.55
2023-04-30T23:17:34.561Z,33.66
2023-04-30T23:18:06.180Z,33.63
2023-04-30T23:18:37.726Z,33.65
2023-04-30T23:19:09.380Z,33.71
2023-04-30T23:19:40.940Z,33.58
2023-04-30T23:20:12.551Z,33.63
2023-04-30T23:20:44.075Z,33.65
2023-04-30T23:21:15.692Z,33.72
2023-04-30T23:21:47.214Z,33.71
2023-04-30T23:22:18.839Z,33.66
2023-04-30T23:22:50.412Z,33.65
2023-04-30T23:23:21.967Z,33.61
2023-04-30T23:23:53.619Z,33.65
2023-04-30T23:24:25.210Z,33.53
2023-04-30T23:24:56.785Z,33.58
2023-04-30T23:25:28.373Z,33.52
2023-04-30T23:25:59.963Z,33.52
2023-04-30T23:26:31.495Z,33.71
2023-04-30T23:27:03.112Z,33.69
2023-04-30T23:27:34.685Z,33.70
2023-04-30T23:28:06.205Z,33.83
2023-04-30T23:28:37.808Z,33.77
2023-04-30T23:29:09.354Z,33.81
2023-04-30T23:29:41.048Z,33.74
2023-04-30T23:30:12.628Z,33.60
2023-04-30T23:30:44.180Z,33.66
2023-04-30T23:31:15.694Z,33.78
2023-04-30T23:31:47.229Z,33.71
2023-04-30T23:32:18.961Z,33.72
2023-04-30T23:32:50.716Z,33.71
2023-04-30T23:33:22.261Z,33.80
2023-04-30T23:33:53.733Z,33.81
2023-04-30T23:34:25.279Z,33.75
2023-04-30T23:34:56.958Z,33.63
2023-04-30T23:35:28.549Z,33.64
2023-04-30T23:36:00.046Z,33.68
2023-04-30T23:36:31.600Z,33.55
2023-04-30T23:37:03.205Z,33.68
2023-04-30T23:37:35.235Z,33.70
2023-04-30T23:38:06.816Z,33.67
2023-04-30T23:38:38.398Z,33.62
2023-04-30T23:39:09.975Z,33.70
2023-04-30T23:39:41.526Z,33.56
2023-04-30T23:40:13.155Z,33.67
2023-04-30T23:40:44.758Z,33.67
2023-04-30T23:41:16.321Z,33.65
2023-04-30T23:41:47.888Z,33.63
2023-04-30T23:42:19.559Z,33.58
2023-04-30T23:42:51.099Z,33.58
2023-04-30T23:43:22.807Z,33.69
2023-04-30T23:43:54.382Z,33.64
2023-04-30T23:44:25.966Z,33.76
2023-04-30T23:44:57.641Z,33.65
2023-04-30T23:45:29.190Z,33.63
2023-04-30T23:46:00.875Z,33.60
2023-04-30T23:46:32.551Z,33.80
2023-04-30T23:47:04.094Z,33.87
2023-04-30T23:47:35.887Z,33.51
2023-04-30T23:48:07.696Z,33.63
2023-04-30T23:48:39.396Z,33.69
2023-04-30T23:49:11.207Z,33.65
2023-04-30T23:49:44.655Z,33.63
2023-04-30T23:50:17.570Z,33.61
2023-04-30T23:50:58.501Z,33.56